Airfield :
LOGIN :

Register | Disclaimer

   EN    FR    IT 

 










Legend :    VFR   Marginal VFR   IFR   Intensive IFR   Very Intensive IFR
Visi :
Ceiling :
>= 8 km
>= 3000ft
5 to 8 km
1000 to 3000 ft
1500m to 5 km
500 to 1000 ft
800 to 1500m
200 to 500 ft
< 800m
< 200 ft
Symbols :   Thunderstorms  Fog  Heavy snow  Heavy precipitations  Wind > 20 kt
SIGMETs :     Misc.  Thunderstorms  Icing  Turbulence  Mountain Waves  Volcanic Ashes






- Airport Elevation : 296 ft
- IATA code : GKE


ETNG - Geilenkirchen

CURRENT METAR :
  • 162050Z VRB01KT 9999 FEW020 BKN030 14/13 Q1008

EXPIRED METARs :
  • 161950Z VRB03KT 9999 VCSH SCT033CB BKN042 16/14 Q1008
  • 161850Z 21003KT 9999 FEW042 SCT080 17/14 Q1007
  • 161750Z AUTO 21004KT 160V250 9999 FEW052/// BKN270/// 16/13 Q1007
  • 161650Z AUTO 21004KT 150V260 9999 FEW066/// SCT079/// BKN130/// 17/15 Q1007
  • 161620Z AUTO 23008KT 180V260 9999 FEW006/// BKN033/// OVC064/// 16/15 Q1007

TAF TAF ETNG
Valid from the 16 at 21:00 until the 17 at 12:00 UTC


162000Z 1621/1712 19005KT 9999 NSW BKN030
TEMPO 1621/1622 21012KT 4000 SHRA BKN020CB



MET'MAP, your aeronautical weather chart ! - Copyright ORBIFLY December 2007 - Disclaimer

ORBIFLY MET'MAP TEAM :

Programming & Development : Alexandra Zaïnal
Original concept : Baudouin d'Aumeries
Technical & hardware support : Manuel Goepfert
Assistance : Marc-Olivier Méhu




SOURCES & CREDITS :

   NOAA